sensor_id;sensor_type;location;lat;lon;timestamp;P1;durP1;ratioP1;P2;durP2;ratioP2
28270;SDS011;15527;0.000;0.000;2023-04-10T16:20:43;2.70;;;2.50;;
28270;SDS011;15527;0.000;0.000;2023-04-10T16:21:42;3.80;;;2.70;;
28270;SDS011;15527;0.000;0.000;2023-04-10T16:22:40;3.63;;;2.45;;
28270;SDS011;15527;0.000;0.000;2023-04-10T16:23:39;2.50;;;2.30;;
28270;SDS011;15527;0.000;0.000;2023-04-10T16:24:38;2.67;;;2.20;;
28270;SDS011;15527;0.000;0.000;2023-04-10T16:25:36;2.30;;;2.20;;
28270;SDS011;15527;0.000;0.000;2023-04-10T16:26:35;3.15;;;2.10;;
28270;SDS011;15527;0.000;0.000;2023-04-10T16:27:34;2.42;;;2.00;;
28270;SDS011;15527;0.000;0.000;2023-04-10T16:28:35;3.50;;;2.03;;
28270;SDS011;15527;0.000;0.000;2023-04-10T16:29:34;2.10;;;2.00;;
28270;SDS011;15527;0.000;0.000;2023-04-10T16:30:33;2.70;;;2.10;;
28270;SDS011;15527;0.000;0.000;2023-04-10T16:31:32;2.97;;;2.05;;
28270;SDS011;15527;0.000;0.000;2023-04-10T16:32:31;3.28;;;2.20;;
28270;SDS011;15527;0.000;0.000;2023-04-10T16:33:30;2.58;;;2.05;;
28270;SDS011;15527;0.000;0.000;2023-04-10T16:34:29;5.47;;;2.35;;
28270;SDS011;15527;0.000;0.000;2023-04-10T16:35:27;3.80;;;2.30;;
28270;SDS011;15527;0.000;0.000;2023-04-10T16:36:26;2.47;;;2.25;;
28270;SDS011;15527;0.000;0.000;2023-04-10T16:37:24;3.90;;;2.72;;
28270;SDS011;15527;0.000;0.000;2023-04-10T16:38:23;4.68;;;2.97;;
28270;SDS011;15527;0.000;0.000;2023-04-10T16:39:21;3.97;;;2.28;;
28270;SDS011;15527;0.000;0.000;2023-04-10T16:40:20;3.00;;;2.67;;
28270;SDS011;15527;0.000;0.000;2023-04-10T16:41:19;4.30;;;2.60;;
28270;SDS011;15527;0.000;0.000;2023-04-10T16:42:17;4.30;;;2.65;;
28270;SDS011;15527;0.000;0.000;2023-04-10T16:43:16;4.18;;;2.72;;
28270;SDS011;15527;0.000;0.000;2023-04-10T16:44:14;2.50;;;2.30;;
28270;SDS011;15527;0.000;0.000;2023-04-10T16:45:13;3.80;;;2.22;;
28270;SDS011;15527;0.000;0.000;2023-04-10T16:46:12;2.92;;;2.60;;
28270;SDS011;15527;0.000;0.000;2023-04-10T16:47:11;4.20;;;2.50;;
28270;SDS011;15527;0.000;0.000;2023-04-10T16:48:09;4.10;;;2.90;;
28270;SDS011;15527;0.000;0.000;2023-04-10T16:49:08;2.90;;;2.50;;
28270;SDS011;15527;0.000;0.000;2023-04-10T16:50:06;2.70;;;2.40;;
28270;SDS011;15527;0.000;0.000;2023-04-10T16:51:05;2.78;;;2.20;;
28270;SDS011;15527;0.000;0.000;2023-04-10T16:52:05;4.30;;;2.30;;
28270;SDS011;15527;0.000;0.000;2023-04-10T16:53:04;4.05;;;2.53;;
28270;SDS011;15527;0.000;0.000;2023-04-10T16:54:03;2.97;;;2.42;;
28270;SDS011;15527;0.000;0.000;2023-04-10T16:55:01;4.82;;;2.53;;
28270;SDS011;15527;0.000;0.000;2023-04-10T16:56:00;2.67;;;2.47;;
28270;SDS011;15527;0.000;0.000;2023-04-10T16:56:59;3.70;;;2.35;;
28270;SDS011;15527;0.000;0.000;2023-04-10T16:57:58;3.17;;;2.50;;
28270;SDS011;15527;0.000;0.000;2023-04-10T16:58:56;4.68;;;2.63;;
28270;SDS011;15527;0.000;0.000;2023-04-10T16:59:55;2.58;;;2.35;;
28270;SDS011;15527;0.000;0.000;2023-04-10T17:00:55;3.38;;;2.78;;
28270;SDS011;15527;0.000;0.000;2023-04-10T17:01:54;3.85;;;2.70;;
28270;SDS011;15527;0.000;0.000;2023-04-10T17:02:52;3.15;;;2.47;;
28270;SDS011;15527;0.000;0.000;2023-04-10T17:03:51;4.32;;;2.90;;
28270;SDS011;15527;0.000;0.000;2023-04-10T17:04:55;3.28;;;3.00;;
28270;SDS011;15527;0.000;0.000;2023-04-10T17:05:54;3.35;;;2.70;;
28270;SDS011;15527;0.000;0.000;2023-04-10T17:06:52;6.75;;;2.97;;
28270;SDS011;15527;0.000;0.000;2023-04-10T17:07:51;3.83;;;2.88;;
28270;SDS011;15527;0.000;0.000;2023-04-10T17:08:49;2.78;;;2.58;;
28270;SDS011;15527;0.000;0.000;2023-04-10T17:09:48;3.08;;;2.70;;
28270;SDS011;15527;0.000;0.000;2023-04-10T17:10:47;3.88;;;2.95;;
28270;SDS011;15527;0.000;0.000;2023-04-10T17:11:45;2.80;;;2.60;;
28270;SDS011;15527;0.000;0.000;2023-04-10T17:12:44;4.65;;;2.97;;
28270;SDS011;15527;0.000;0.000;2023-04-10T17:13:42;3.10;;;2.90;;
28270;SDS011;15527;0.000;0.000;2023-04-10T17:14:42;4.03;;;3.10;;
28270;SDS011;15527;0.000;0.000;2023-04-10T17:15:41;3.80;;;3.50;;
28270;SDS011;15527;0.000;0.000;2023-04-10T17:16:39;3.08;;;2.70;;
28270;SDS011;15527;0.000;0.000;2023-04-10T17:17:38;5.45;;;3.10;;
28270;SDS011;15527;0.000;0.000;2023-04-10T17:18:36;5.88;;;3.10;;
28270;SDS011;15527;0.000;0.000;2023-04-10T17:19:35;3.17;;;2.88;;
28270;SDS011;15527;0.000;0.000;2023-04-10T17:20:34;3.60;;;3.30;;
28270;SDS011;15527;0.000;0.000;2023-04-10T17:21:33;3.57;;;3.17;;
28270;SDS011;15527;0.000;0.000;2023-04-10T17:22:32;4.80;;;2.92;;
28270;SDS011;15527;0.000;0.000;2023-04-10T17:23:30;3.42;;;3.05;;
28270;SDS011;15527;0.000;0.000;2023-04-10T17:24:29;3.17;;;2.90;;
28270;SDS011;15527;0.000;0.000;2023-04-10T17:25:28;4.57;;;3.43;;
28270;SDS011;15527;0.000;0.000;2023-04-10T17:26:27;3.35;;;3.03;;
28270;SDS011;15527;0.000;0.000;2023-04-10T17:27:25;3.53;;;3.20;;
28270;SDS011;15527;0.000;0.000;2023-04-10T17:28:24;6.27;;;3.07;;
28270;SDS011;15527;0.000;0.000;2023-04-10T17:29:23;3.40;;;3.10;;
28270;SDS011;15527;0.000;0.000;2023-04-10T17:30:22;3.17;;;2.88;;
28270;SDS011;15527;0.000;0.000;2023-04-10T17:31:21;3.03;;;2.72;;
28270;SDS011;15527;0.000;0.000;2023-04-10T17:32:19;3.40;;;3.10;;
28270;SDS011;15527;0.000;0.000;2023-04-10T17:33:18;5.37;;;3.10;;
28270;SDS011;15527;0.000;0.000;2023-04-10T17:34:18;4.40;;;3.33;;
28270;SDS011;15527;0.000;0.000;2023-04-10T17:35:17;3.53;;;3.13;;
28270;SDS011;15527;0.000;0.000;2023-04-10T17:36:15;3.43;;;3.03;;
28270;SDS011;15527;0.000;0.000;2023-04-10T17:37:14;5.10;;;3.25;;
28270;SDS011;15527;0.000;0.000;2023-04-10T17:38:13;4.60;;;3.47;;
28270;SDS011;15527;0.000;0.000;2023-04-10T17:39:11;3.13;;;2.83;;
28270;SDS011;15527;0.000;0.000;2023-04-10T17:40:10;3.57;;;3.00;;
28270;SDS011;15527;0.000;0.000;2023-04-10T17:41:09;4.40;;;3.10;;
28270;SDS011;15527;0.000;0.000;2023-04-10T17:42:12;3.50;;;3.20;;
28270;SDS011;15527;0.000;0.000;2023-04-10T17:43:11;3.40;;;3.10;;
28270;SDS011;15527;0.000;0.000;2023-04-10T17:44:09;3.53;;;3.20;;
28270;SDS011;15527;0.000;0.000;2023-04-10T17:45:08;3.83;;;3.30;;
28270;SDS011;15527;0.000;0.000;2023-04-10T17:46:11;3.83;;;3.37;;
28270;SDS011;15527;0.000;0.000;2023-04-10T17:47:11;3.60;;;2.90;;
28270;SDS011;15527;0.000;0.000;2023-04-10T17:48:10;4.10;;;3.00;;
28270;SDS011;15527;0.000;0.000;2023-04-10T17:49:08;3.53;;;3.20;;
28270;SDS011;15527;0.000;0.000;2023-04-10T17:50:07;3.10;;;2.83;;
28270;SDS011;15527;0.000;0.000;2023-04-10T17:51:07;3.37;;;3.07;;
28270;SDS011;15527;0.000;0.000;2023-04-10T17:52:06;4.80;;;2.92;;
28270;SDS011;15527;0.000;0.000;2023-04-10T17:53:04;3.70;;;3.10;;
28270;SDS011;15527;0.000;0.000;2023-04-10T17:54:03;3.13;;;2.83;;
28270;SDS011;15527;0.000;0.000;2023-04-10T17:55:01;3.33;;;3.03;;
28270;SDS011;15527;0.000;0.000;2023-04-10T17:56:00;4.47;;;3.20;;
28270;SDS011;15527;0.000;0.000;2023-04-10T17:56:59;3.60;;;3.10;;
28270;SDS011;15527;0.000;0.000;2023-04-10T17:57:58;3.43;;;3.07;;
28270;SDS011;15527;0.000;0.000;2023-04-10T17:58:57;4.10;;;3.70;;
28270;SDS011;15527;0.000;0.000;2023-04-10T17:59:57;3.60;;;3.30;;
28270;SDS011;15527;0.000;0.000;2023-04-10T18:00:55;3.80;;;3.50;;
28270;SDS011;15527;0.000;0.000;2023-04-10T18:01:54;3.77;;;3.47;;
28270;SDS011;15527;0.000;0.000;2023-04-10T18:02:53;3.77;;;3.03;;
28270;SDS011;15527;0.000;0.000;2023-04-10T18:03:56;4.40;;;3.60;;
28270;SDS011;15527;0.000;0.000;2023-04-10T18:04:56;4.00;;;3.70;;
28270;SDS011;15527;0.000;0.000;2023-04-10T18:05:54;4.23;;;3.83;;
28270;SDS011;15527;0.000;0.000;2023-04-10T18:06:53;4.03;;;3.63;;
28270;SDS011;15527;0.000;0.000;2023-04-10T18:07:51;6.90;;;3.97;;
28270;SDS011;15527;0.000;0.000;2023-04-10T18:08:50;6.90;;;4.17;;
28270;SDS011;15527;0.000;0.000;2023-04-10T18:09:49;7.27;;;3.93;;
28270;SDS011;15527;0.000;0.000;2023-04-10T18:10:47;4.87;;;4.17;;
28270;SDS011;15527;0.000;0.000;2023-04-10T18:11:46;5.27;;;4.57;;
28270;SDS011;15527;0.000;0.000;2023-04-10T18:12:47;5.47;;;4.10;;
28270;SDS011;15527;0.000;0.000;2023-04-10T18:13:48;4.30;;;3.90;;
28270;SDS011;15527;0.000;0.000;2023-04-10T18:14:47;4.60;;;4.20;;
28270;SDS011;15527;0.000;0.000;2023-04-10T18:15:45;4.67;;;4.27;;
28270;SDS011;15527;0.000;0.000;2023-04-10T18:16:44;4.97;;;4.47;;
28270;SDS011;15527;0.000;0.000;2023-04-10T18:17:43;6.10;;;4.70;;
28270;SDS011;15527;0.000;0.000;2023-04-10T18:18:41;5.87;;;4.77;;
28270;SDS011;15527;0.000;0.000;2023-04-10T18:19:40;5.90;;;5.03;;
28270;SDS011;15527;0.000;0.000;2023-04-10T18:20:38;5.57;;;4.70;;
28270;SDS011;15527;0.000;0.000;2023-04-10T18:21:37;5.83;;;5.23;;
28270;SDS011;15527;0.000;0.000;2023-04-10T18:22:38;6.10;;;4.90;;
28270;SDS011;15527;0.000;0.000;2023-04-10T18:23:37;6.27;;;5.67;;
28270;SDS011;15527;0.000;0.000;2023-04-10T18:24:37;6.70;;;5.23;;
28270;SDS011;15527;0.000;0.000;2023-04-10T18:25:35;6.27;;;5.03;;
28270;SDS011;15527;0.000;0.000;2023-04-10T18:26:34;6.93;;;5.20;;
28270;SDS011;15527;0.000;0.000;2023-04-10T18:27:32;4.50;;;4.10;;
28270;SDS011;15527;0.000;0.000;2023-04-10T18:28:32;6.93;;;5.10;;
28270;SDS011;15527;0.000;0.000;2023-04-10T18:29:32;5.30;;;4.80;;
28270;SDS011;15527;0.000;0.000;2023-04-10T18:30:31;5.57;;;5.07;;
28270;SDS011;15527;0.000;0.000;2023-04-10T18:31:29;6.20;;;5.30;;
28270;SDS011;15527;0.000;0.000;2023-04-10T18:32:28;6.60;;;5.17;;
28270;SDS011;15527;0.000;0.000;2023-04-10T18:33:27;7.90;;;5.87;;
28270;SDS011;15527;0.000;0.000;2023-04-10T18:34:26;6.90;;;5.37;;
28270;SDS011;15527;0.000;0.000;2023-04-10T18:35:24;6.77;;;5.63;;
28270;SDS011;15527;0.000;0.000;2023-04-10T18:36:23;6.03;;;5.43;;
28270;SDS011;15527;0.000;0.000;2023-04-10T18:37:25;5.80;;;5.20;;
28270;SDS011;15527;0.000;0.000;2023-04-10T18:38:26;8.07;;;6.60;;
28270;SDS011;15527;0.000;0.000;2023-04-10T18:39:25;8.87;;;7.00;;
28270;SDS011;15527;0.000;0.000;2023-04-10T18:40:24;11.23;;;7.80;;
28270;SDS011;15527;0.000;0.000;2023-04-10T18:41:22;6.97;;;5.30;;
28270;SDS011;15527;0.000;0.000;2023-04-10T18:42:21;6.60;;;5.83;;
28270;SDS011;15527;0.000;0.000;2023-04-10T18:43:20;8.13;;;6.23;;
28270;SDS011;15527;0.000;0.000;2023-04-10T18:44:22;6.20;;;5.60;;
28270;SDS011;15527;0.000;0.000;2023-04-10T18:45:21;6.63;;;5.93;;
28270;SDS011;15527;0.000;0.000;2023-04-10T18:46:19;6.63;;;5.67;;
28270;SDS011;15527;0.000;0.000;2023-04-10T18:47:21;8.97;;;5.57;;
28270;SDS011;15527;0.000;0.000;2023-04-10T18:48:20;7.17;;;5.50;;
28270;SDS011;15527;0.000;0.000;2023-04-10T18:49:19;6.23;;;5.60;;
28270;SDS011;15527;0.000;0.000;2023-04-10T18:50:17;7.20;;;6.50;;
28270;SDS011;15527;0.000;0.000;2023-04-10T18:51:16;11.27;;;6.97;;
28270;SDS011;15527;0.000;0.000;2023-04-10T18:52:15;10.00;;;7.60;;
28270;SDS011;15527;0.000;0.000;2023-04-10T18:53:13;11.60;;;8.63;;
28270;SDS011;15527;0.000;0.000;2023-04-10T18:54:12;10.40;;;7.73;;
28270;SDS011;15527;0.000;0.000;2023-04-10T18:55:10;7.97;;;6.70;;
28270;SDS011;15527;0.000;0.000;2023-04-10T18:56:09;6.37;;;5.20;;
28270;SDS011;15527;0.000;0.000;2023-04-10T18:57:07;5.60;;;4.80;;
28270;SDS011;15527;0.000;0.000;2023-04-10T18:58:06;5.57;;;4.70;;
28270;SDS011;15527;0.000;0.000;2023-04-10T18:59:04;5.50;;;3.97;;
28270;SDS011;15527;0.000;0.000;2023-04-10T19:00:03;5.03;;;4.50;;
28270;SDS011;15527;0.000;0.000;2023-04-10T19:01:09;4.43;;;4.03;;
28270;SDS011;15527;0.000;0.000;2023-04-10T19:02:10;3.87;;;3.57;;
28270;SDS011;15527;0.000;0.000;2023-04-10T19:03:09;4.80;;;3.90;;
28270;SDS011;15527;0.000;0.000;2023-04-10T19:04:07;5.70;;;3.93;;
28270;SDS011;15527;0.000;0.000;2023-04-10T19:05:06;5.17;;;4.57;;
28270;SDS011;15527;0.000;0.000;2023-04-10T19:06:05;7.07;;;5.53;;
28270;SDS011;15527;0.000;0.000;2023-04-10T19:07:04;6.07;;;5.47;;
28270;SDS011;15527;0.000;0.000;2023-04-10T19:08:03;5.37;;;4.87;;
28270;SDS011;15527;0.000;0.000;2023-04-10T19:09:02;5.10;;;4.23;;
28270;SDS011;15527;0.000;0.000;2023-04-10T19:10:01;4.50;;;4.10;;
28270;SDS011;15527;0.000;0.000;2023-04-10T19:11:02;5.07;;;4.57;;
28270;SDS011;15527;0.000;0.000;2023-04-10T19:12:03;5.03;;;4.50;;
28270;SDS011;15527;0.000;0.000;2023-04-10T19:13:05;5.70;;;4.57;;
28270;SDS011;15527;0.000;0.000;2023-04-10T19:14:05;5.00;;;4.00;;
28270;SDS011;15527;0.000;0.000;2023-04-10T19:15:04;4.10;;;3.80;;
28270;SDS011;15527;0.000;0.000;2023-04-10T19:16:03;4.07;;;3.77;;
28270;SDS011;15527;0.000;0.000;2023-04-10T19:17:02;5.57;;;4.30;;
28270;SDS011;15527;0.000;0.000;2023-04-10T19:18:03;3.50;;;3.07;;
28270;SDS011;15527;0.000;0.000;2023-04-10T19:19:01;3.60;;;2.07;;
28270;SDS011;15527;0.000;0.000;2023-04-10T19:20:00;2.60;;;2.40;;
28270;SDS011;15527;0.000;0.000;2023-04-10T19:20:58;2.63;;;2.40;;
28270;SDS011;15527;0.000;0.000;2023-04-10T19:21:57;2.13;;;1.93;;
28270;SDS011;15527;0.000;0.000;2023-04-10T19:22:55;4.60;;;2.03;;
28270;SDS011;15527;0.000;0.000;2023-04-10T19:23:54;4.13;;;2.30;;
28270;SDS011;15527;0.000;0.000;2023-04-10T19:24:55;2.07;;;1.93;;
28270;SDS011;15527;0.000;0.000;2023-04-10T19:25:54;2.30;;;2.10;;
28270;SDS011;15527;0.000;0.000;2023-04-10T19:26:53;2.50;;;1.83;;
28270;SDS011;15527;0.000;0.000;2023-04-10T19:27:51;3.20;;;2.27;;
28270;SDS011;15527;0.000;0.000;2023-04-10T19:28:50;2.67;;;2.33;;
28270;SDS011;15527;0.000;0.000;2023-04-10T19:29:49;2.50;;;2.30;;
28270;SDS011;15527;0.000;0.000;2023-04-10T19:30:47;3.50;;;2.40;;
28270;SDS011;15527;0.000;0.000;2023-04-10T19:31:46;2.50;;;2.13;;
28270;SDS011;15527;0.000;0.000;2023-04-10T19:32:44;2.80;;;2.00;;
28270;SDS011;15527;0.000;0.000;2023-04-10T19:33:43;2.30;;;2.10;;
28270;SDS011;15527;0.000;0.000;2023-04-10T19:34:42;2.13;;;2.00;;
28270;SDS011;15527;0.000;0.000;2023-04-10T19:35:40;2.50;;;2.20;;
28270;SDS011;15527;0.000;0.000;2023-04-10T19:36:39;2.80;;;2.43;;
28270;SDS011;15527;0.000;0.000;2023-04-10T19:37:38;2.87;;;2.23;;
28270;SDS011;15527;0.000;0.000;2023-04-10T19:38:37;2.87;;;2.20;;
28270;SDS011;15527;0.000;0.000;2023-04-10T19:39:37;3.07;;;2.77;;
28270;SDS011;15527;0.000;0.000;2023-04-10T19:40:36;3.17;;;2.37;;
28270;SDS011;15527;0.000;0.000;2023-04-10T19:41:34;2.33;;;2.13;;
28270;SDS011;15527;0.000;0.000;2023-04-10T19:42:38;2.87;;;2.57;;
28270;SDS011;15527;0.000;0.000;2023-04-10T19:43:37;4.27;;;2.70;;
28270;SDS011;15527;0.000;0.000;2023-04-10T19:44:36;5.73;;;2.70;;
28270;SDS011;15527;0.000;0.000;2023-04-10T19:45:35;2.93;;;2.73;;
28270;SDS011;15527;0.000;0.000;2023-04-10T19:46:34;5.07;;;3.27;;
28270;SDS011;15527;0.000;0.000;2023-04-10T19:47:35;3.27;;;2.80;;
28270;SDS011;15527;0.000;0.000;2023-04-10T19:48:33;3.30;;;2.70;;
28270;SDS011;15527;0.000;0.000;2023-04-10T19:49:32;3.40;;;2.60;;
28270;SDS011;15527;0.000;0.000;2023-04-10T19:50:31;3.40;;;3.10;;
28270;SDS011;15527;0.000;0.000;2023-04-10T19:51:30;3.90;;;3.23;;
28270;SDS011;15527;0.000;0.000;2023-04-10T19:52:29;3.83;;;3.03;;
28270;SDS011;15527;0.000;0.000;2023-04-10T19:53:27;5.03;;;4.03;;
28270;SDS011;15527;0.000;0.000;2023-04-10T19:54:26;5.83;;;3.50;;
28270;SDS011;15527;0.000;0.000;2023-04-10T19:55:26;6.70;;;4.03;;
28270;SDS011;15527;0.000;0.000;2023-04-10T19:56:25;4.90;;;3.80;;
28270;SDS011;15527;0.000;0.000;2023-04-10T19:57:25;4.93;;;4.17;;
28270;SDS011;15527;0.000;0.000;2023-04-10T19:58:24;4.30;;;3.90;;
28270;SDS011;15527;0.000;0.000;2023-04-10T19:59:22;4.77;;;4.23;;
28270;SDS011;15527;0.000;0.000;2023-04-10T20:00:21;6.63;;;4.50;;
28270;SDS011;15527;0.000;0.000;2023-04-10T20:01:20;4.83;;;4.07;;
28270;SDS011;15527;0.000;0.000;2023-04-10T20:02:20;4.73;;;4.17;;
28270;SDS011;15527;0.000;0.000;2023-04-10T20:03:19;6.70;;;5.00;;
28270;SDS011;15527;0.000;0.000;2023-04-10T20:04:23;5.20;;;3.90;;
28270;SDS011;15527;0.000;0.000;2023-04-10T20:05:21;11.77;;;6.60;;
28270;SDS011;15527;0.000;0.000;2023-04-10T20:06:20;4.53;;;3.70;;
28270;SDS011;15527;0.000;0.000;2023-04-10T20:07:19;7.07;;;3.60;;
28270;SDS011;15527;0.000;0.000;2023-04-10T20:08:17;6.90;;;3.90;;
28270;SDS011;15527;0.000;0.000;2023-04-10T20:09:16;6.17;;;4.17;;
28270;SDS011;15527;0.000;0.000;2023-04-10T20:10:15;5.53;;;4.00;;
28270;SDS011;15527;0.000;0.000;2023-04-10T20:11:13;5.60;;;3.90;;
28270;SDS011;15527;0.000;0.000;2023-04-10T20:12:12;6.37;;;4.93;;
28270;SDS011;15527;0.000;0.000;2023-04-10T20:13:13;4.30;;;3.20;;
28270;SDS011;15527;0.000;0.000;2023-04-10T20:14:11;3.43;;;2.93;;
28270;SDS011;15527;0.000;0.000;2023-04-10T20:15:10;4.33;;;3.47;;
28270;SDS011;15527;0.000;0.000;2023-04-10T20:16:09;4.33;;;2.70;;
28270;SDS011;15527;0.000;0.000;2023-04-10T20:17:09;6.27;;;3.63;;
28270;SDS011;15527;0.000;0.000;2023-04-10T20:18:08;3.43;;;3.00;;
28270;SDS011;15527;0.000;0.000;2023-04-10T20:19:07;3.20;;;2.83;;
28270;SDS011;15527;0.000;0.000;2023-04-10T20:20:05;3.70;;;2.93;;
28270;SDS011;15527;0.000;0.000;2023-04-10T20:21:05;5.00;;;3.30;;
28270;SDS011;15527;0.000;0.000;2023-04-10T20:22:05;4.87;;;3.23;;
28270;SDS011;15527;0.000;0.000;2023-04-10T20:23:05;5.20;;;3.40;;
28270;SDS011;15527;0.000;0.000;2023-04-10T20:24:04;5.57;;;4.10;;
28270;SDS011;15527;0.000;0.000;2023-04-10T20:25:03;6.70;;;4.63;;
28270;SDS011;15527;0.000;0.000;2023-04-10T20:26:01;6.10;;;4.60;;
28270;SDS011;15527;0.000;0.000;2023-04-10T20:27:01;6.10;;;4.67;;
28270;SDS011;15527;0.000;0.000;2023-04-10T20:27:59;5.40;;;4.53;;
28270;SDS011;15527;0.000;0.000;2023-04-10T20:28:58;6.50;;;4.60;;
28270;SDS011;15527;0.000;0.000;2023-04-10T20:29:57;7.83;;;5.07;;
28270;SDS011;15527;0.000;0.000;2023-04-10T20:30:56;5.87;;;4.40;;
28270;SDS011;15527;0.000;0.000;2023-04-10T20:31:55;6.20;;;4.53;;
28270;SDS011;15527;0.000;0.000;2023-04-10T20:32:53;7.87;;;4.57;;
28270;SDS011;15527;0.000;0.000;2023-04-10T20:33:52;6.50;;;4.60;;
28270;SDS011;15527;0.000;0.000;2023-04-10T20:34:51;5.73;;;4.47;;
28270;SDS011;15527;0.000;0.000;2023-04-10T20:35:51;6.70;;;4.63;;
28270;SDS011;15527;0.000;0.000;2023-04-10T20:36:50;6.10;;;4.73;;
28270;SDS011;15527;0.000;0.000;2023-04-10T20:37:48;6.57;;;4.77;;
28270;SDS011;15527;0.000;0.000;2023-04-10T20:38:47;7.27;;;4.87;;
28270;SDS011;15527;0.000;0.000;2023-04-10T20:39:46;7.67;;;5.00;;
28270;SDS011;15527;0.000;0.000;2023-04-10T20:40:45;5.30;;;4.20;;
28270;SDS011;15527;0.000;0.000;2023-04-10T20:41:43;7.43;;;4.60;;
28270;SDS011;15527;0.000;0.000;2023-04-10T20:42:42;7.87;;;4.90;;
28270;SDS011;15527;0.000;0.000;2023-04-10T20:43:40;6.77;;;4.30;;
28270;SDS011;15527;0.000;0.000;2023-04-10T20:44:39;6.20;;;3.73;;
28270;SDS011;15527;0.000;0.000;2023-04-10T20:45:38;3.90;;;3.50;;
28270;SDS011;15527;0.000;0.000;2023-04-10T20:46:37;3.00;;;2.80;;
28270;SDS011;15527;0.000;0.000;2023-04-10T20:47:35;4.00;;;3.03;;
28270;SDS011;15527;0.000;0.000;2023-04-10T20:48:34;4.23;;;3.30;;
28270;SDS011;15527;0.000;0.000;2023-04-10T20:49:34;6.20;;;2.93;;
28270;SDS011;15527;0.000;0.000;2023-04-10T20:50:35;4.40;;;2.97;;
28270;SDS011;15527;0.000;0.000;2023-04-10T20:51:40;4.97;;;3.23;;
28270;SDS011;15527;0.000;0.000;2023-04-10T20:52:39;4.97;;;2.70;;
28270;SDS011;15527;0.000;0.000;2023-04-10T20:53:37;2.60;;;2.40;;
28270;SDS011;15527;0.000;0.000;2023-04-10T20:54:36;2.83;;;2.07;;
28270;SDS011;15527;0.000;0.000;2023-04-10T20:55:38;3.93;;;2.60;;
28270;SDS011;15527;0.000;0.000;2023-04-10T20:56:36;3.50;;;2.03;;
28270;SDS011;15527;0.000;0.000;2023-04-10T20:57:35;2.77;;;1.83;;
28270;SDS011;15527;0.000;0.000;2023-04-10T20:58:33;2.83;;;1.40;;
28270;SDS011;15527;0.000;0.000;2023-04-10T20:59:32;2.50;;;1.90;;
28270;SDS011;15527;0.000;0.000;2023-04-10T21:00:33;2.23;;;1.90;;
28270;SDS011;15527;0.000;0.000;2023-04-10T21:01:32;4.33;;;2.23;;
28270;SDS011;15527;0.000;0.000;2023-04-10T21:02:31;4.50;;;2.67;;
28270;SDS011;15527;0.000;0.000;2023-04-10T21:03:29;3.97;;;2.70;;
28270;SDS011;15527;0.000;0.000;2023-04-10T21:04:28;4.47;;;2.40;;
28270;SDS011;15527;0.000;0.000;2023-04-10T21:05:29;10.37;;;4.67;;
28270;SDS011;15527;0.000;0.000;2023-04-10T21:06:31;7.33;;;3.73;;
28270;SDS011;15527;0.000;0.000;2023-04-10T21:07:30;3.73;;;2.70;;
28270;SDS011;15527;0.000;0.000;2023-04-10T21:08:29;7.10;;;4.17;;
28270;SDS011;15527;0.000;0.000;2023-04-10T21:09:27;6.53;;;4.80;;
28270;SDS011;15527;0.000;0.000;2023-04-10T21:10:26;10.63;;;5.10;;
28270;SDS011;15527;0.000;0.000;2023-04-10T21:11:25;7.63;;;4.90;;
28270;SDS011;15527;0.000;0.000;2023-04-10T21:12:24;3.97;;;3.00;;
28270;SDS011;15527;0.000;0.000;2023-04-10T21:13:22;5.70;;;3.17;;
28270;SDS011;15527;0.000;0.000;2023-04-10T21:14:24;2.00;;;1.80;;
28270;SDS011;15527;0.000;0.000;2023-04-10T21:15:22;2.07;;;1.73;;
28270;SDS011;15527;0.000;0.000;2023-04-10T21:16:21;3.40;;;2.57;;
28270;SDS011;15527;0.000;0.000;2023-04-10T21:17:20;4.57;;;2.30;;
28270;SDS011;15527;0.000;0.000;2023-04-10T21:18:19;7.07;;;4.33;;
28270;SDS011;15527;0.000;0.000;2023-04-10T21:19:17;1.53;;;1.43;;
28270;SDS011;15527;0.000;0.000;2023-04-10T21:20:16;3.07;;;1.80;;
28270;SDS011;15527;0.000;0.000;2023-04-10T21:21:14;3.83;;;1.97;;
28270;SDS011;15527;0.000;0.000;2023-04-10T21:22:13;5.87;;;3.67;;
28270;SDS011;15527;0.000;0.000;2023-04-10T21:23:12;2.83;;;1.57;;
28270;SDS011;15527;0.000;0.000;2023-04-10T21:24:10;2.63;;;2.00;;
28270;SDS011;15527;0.000;0.000;2023-04-10T21:25:09;2.33;;;1.90;;
28270;SDS011;15527;0.000;0.000;2023-04-10T21:26:08;3.07;;;2.10;;
28270;SDS011;15527;0.000;0.000;2023-04-10T21:27:07;4.40;;;2.63;;
28270;SDS011;15527;0.000;0.000;2023-04-10T21:28:06;5.30;;;2.93;;
28270;SDS011;15527;0.000;0.000;2023-04-10T21:29:04;2.70;;;1.70;;
28270;SDS011;15527;0.000;0.000;2023-04-10T21:30:03;3.23;;;2.70;;
28270;SDS011;15527;0.000;0.000;2023-04-10T21:31:02;3.93;;;3.40;;
28270;SDS011;15527;0.000;0.000;2023-04-10T21:32:00;3.83;;;3.07;;
28270;SDS011;15527;0.000;0.000;2023-04-10T21:32:59;5.17;;;2.73;;
28270;SDS011;15527;0.000;0.000;2023-04-10T21:33:58;5.77;;;3.90;;
28270;SDS011;15527;0.000;0.000;2023-04-10T21:34:56;5.70;;;2.70;;
28270;SDS011;15527;0.000;0.000;2023-04-10T21:35:55;4.37;;;2.80;;
28270;SDS011;15527;0.000;0.000;2023-04-10T21:36:53;5.87;;;2.83;;
28270;SDS011;15527;0.000;0.000;2023-04-10T21:37:52;5.00;;;3.70;;
28270;SDS011;15527;0.000;0.000;2023-04-10T21:38:53;5.97;;;4.27;;
28270;SDS011;15527;0.000;0.000;2023-04-10T21:39:52;5.10;;;2.80;;
28270;SDS011;15527;0.000;0.000;2023-04-10T21:40:51;4.03;;;2.90;;
28270;SDS011;15527;0.000;0.000;2023-04-10T21:41:50;3.17;;;1.77;;
28270;SDS011;15527;0.000;0.000;2023-04-10T21:42:49;2.57;;;1.60;;
28270;SDS011;15527;0.000;0.000;2023-04-10T21:43:48;1.90;;;1.50;;
28270;SDS011;15527;0.000;0.000;2023-04-10T21:44:47;4.83;;;3.33;;
28270;SDS011;15527;0.000;0.000;2023-04-10T21:45:45;2.83;;;1.90;;
28270;SDS011;15527;0.000;0.000;2023-04-10T21:46:44;3.33;;;1.40;;
28270;SDS011;15527;0.000;0.000;2023-04-10T21:47:42;2.87;;;1.70;;
28270;SDS011;15527;0.000;0.000;2023-04-10T21:48:41;2.10;;;1.73;;
28270;SDS011;15527;0.000;0.000;2023-04-10T21:49:39;2.83;;;1.60;;
28270;SDS011;15527;0.000;0.000;2023-04-10T21:50:38;1.90;;;1.40;;
28270;SDS011;15527;0.000;0.000;2023-04-10T21:51:37;3.43;;;1.57;;
28270;SDS011;15527;0.000;0.000;2023-04-10T21:52:37;2.80;;;1.20;;
28270;SDS011;15527;0.000;0.000;2023-04-10T21:53:36;1.63;;;1.40;;
28270;SDS011;15527;0.000;0.000;2023-04-10T21:54:34;3.50;;;1.27;;
28270;SDS011;15527;0.000;0.000;2023-04-10T21:55:33;2.50;;;1.20;;
28270;SDS011;15527;0.000;0.000;2023-04-10T21:56:31;2.40;;;1.60;;
28270;SDS011;15527;0.000;0.000;2023-04-10T21:57:32;1.97;;;1.50;;
28270;SDS011;15527;0.000;0.000;2023-04-10T21:58:31;2.50;;;1.20;;
28270;SDS011;15527;0.000;0.000;2023-04-10T21:59:29;4.13;;;1.60;;
28270;SDS011;15527;0.000;0.000;2023-04-10T22:00:31;2.67;;;1.13;;
28270;SDS011;15527;0.000;0.000;2023-04-10T22:01:30;2.20;;;1.10;;
28270;SDS011;15527;0.000;0.000;2023-04-10T22:02:30;2.80;;;1.53;;
28270;SDS011;15527;0.000;0.000;2023-04-10T22:03:28;2.03;;;1.23;;
28270;SDS011;15527;0.000;0.000;2023-04-10T22:04:27;4.20;;;1.53;;
28270;SDS011;15527;0.000;0.000;2023-04-10T22:05:25;2.87;;;1.20;;
28270;SDS011;15527;0.000;0.000;2023-04-10T22:06:24;1.23;;;1.20;;
28270;SDS011;15527;0.000;0.000;2023-04-10T22:07:23;1.53;;;1.20;;
28270;SDS011;15527;0.000;0.000;2023-04-10T22:08:22;1.47;;;1.33;;
28270;SDS011;15527;0.000;0.000;2023-04-10T22:09:20;1.63;;;1.20;;
28270;SDS011;15527;0.000;0.000;2023-04-10T22:10:19;3.70;;;1.23;;
28270;SDS011;15527;0.000;0.000;2023-04-10T22:11:18;2.40;;;1.20;;
28270;SDS011;15527;0.000;0.000;2023-04-10T22:12:16;3.43;;;1.43;;
28270;SDS011;15527;0.000;0.000;2023-04-10T22:13:15;2.57;;;1.27;;
28270;SDS011;15527;0.000;0.000;2023-04-10T22:14:14;2.10;;;1.10;;
28270;SDS011;15527;0.000;0.000;2023-04-10T22:15:12;2.37;;;1.30;;
28270;SDS011;15527;0.000;0.000;2023-04-10T22:16:11;3.53;;;1.30;;
28270;SDS011;15527;0.000;0.000;2023-04-10T22:17:09;2.93;;;1.37;;
28270;SDS011;15527;0.000;0.000;2023-04-10T22:18:08;1.53;;;1.43;;
28270;SDS011;15527;0.000;0.000;2023-04-10T22:19:06;2.23;;;1.30;;
28270;SDS011;15527;0.000;0.000;2023-04-10T22:20:05;2.60;;;1.23;;
28270;SDS011;15527;0.000;0.000;2023-04-10T22:21:04;3.63;;;1.83;;